Time;durP1;ratioP1;P1;durP2;ratioP2;P2;SDS_P1;SDS_P2;PMS_P1;PMS_P2;Temp;Humidity;BMP_temperature;BMP_pressure;BME280_temperature;BME280_humidity;BME280_pressure;Samples;Min_cycle;Max_cycle;Signal;HPM_P1;HPM_P2
2023/12/20 00:00:37;;;;;;;6.88;4.25;;;7.10;63.30;;;;;;5031831;28;20026;-78
2023/12/20 00:03:03;;;;;;;6.70;4.38;;;7.10;63.50;;;;;;5031801;28;20116;-78
2023/12/20 00:05:31;;;;;;;6.85;4.55;;;7.00;64.20;;;;;;5032856;28;20026;-78
2023/12/20 00:07:57;;;;;;;6.35;4.32;;;7.00;64.80;;;;;;5032838;28;20021;-77
2023/12/20 00:10:23;;;;;;;9.32;5.28;;;6.90;65.50;;;;;;5031629;28;20022;-77
2023/12/20 00:12:48;;;;;;;8.90;5.28;;;6.90;65.20;;;;;;5031318;28;20036;-76
2023/12/20 00:15:14;;;;;;;5.95;5.35;;;6.80;65.70;;;;;;5030887;28;20076;-77
2023/12/20 00:17:40;;;;;;;8.02;4.85;;;6.90;65.70;;;;;;5032440;28;20029;-78
2023/12/20 00:20:06;;;;;;;8.05;4.93;;;6.80;66.30;;;;;;5031026;28;20020;-79
2023/12/20 00:22:31;;;;;;;6.03;4.40;;;6.80;67.00;;;;;;5032411;28;20548;-76
2023/12/20 00:24:57;;;;;;;6.78;4.28;;;6.70;68.00;;;;;;5032753;28;20018;-76
2023/12/20 00:27:23;;;;;;;7.22;4.72;;;6.70;68.80;;;;;;5032826;28;20032;-77
2023/12/20 00:29:50;;;;;;;7.53;4.78;;;6.70;69.10;;;;;;5032571;28;20029;-79
2023/12/20 00:32:16;;;;;;;8.82;5.28;;;6.60;69.20;;;;;;5031360;28;20438;-76
2023/12/20 00:34:42;;;;;;;10.65;5.63;;;6.60;69.80;;;;;;5032603;28;20052;-79
2023/12/20 00:37:08;;;;;;;8.07;4.80;;;6.60;70.50;;;;;;5032841;28;20100;-76
2023/12/20 00:39:33;;;;;;;9.13;5.35;;;6.50;70.70;;;;;;5032559;28;20100;-77
2023/12/20 00:41:59;;;;;;;7.43;4.55;;;6.40;71.20;;;;;;5031440;28;20044;-78
2023/12/20 00:44:24;;;;;;;8.98;5.32;;;6.40;71.60;;;;;;5031102;28;20025;-76
2023/12/20 00:46:51;;;;;;;6.97;4.90;;;6.40;71.80;;;;;;5032384;28;20379;-78
2023/12/20 00:49:16;;;;;;;6.60;4.45;;;6.40;71.80;;;;;;5031452;28;20024;-75
2023/12/20 00:51:42;;;;;;;6.93;4.90;;;6.40;72.10;;;;;;5032473;28;20018;-75
2023/12/20 00:54:09;;;;;;;8.10;4.60;;;6.40;72.70;;;;;;5032295;28;20119;-76
2023/12/20 00:56:35;;;;;;;7.78;4.85;;;6.40;72.80;;;;;;5032163;28;20104;-75
2023/12/20 00:59:00;;;;;;;8.85;5.05;;;6.30;73.70;;;;;;5032491;28;20009;-76
2023/12/20 01:01:26;;;;;;;10.88;5.72;;;6.30;73.50;;;;;;5024639;28;20021;-76
2023/12/20 01:03:52;;;;;;;8.00;5.10;;;6.30;74.10;;;;;;5032444;28;20026;-76
2023/12/20 01:06:18;;;;;;;6.53;4.82;;;6.30;74.40;;;;;;5030444;28;20025;-76
2023/12/20 01:08:44;;;;;;;10.10;5.22;;;6.30;74.20;;;;;;5032236;28;20020;-79
2023/12/20 01:11:10;;;;;;;7.50;4.55;;;6.20;75.00;;;;;;5024254;28;20101;-77
2023/12/20 01:13:35;;;;;;;5.45;4.60;;;6.20;74.80;;;;;;5031774;28;20117;-76
2023/12/20 01:16:01;;;;;;;8.50;4.65;;;6.20;75.00;;;;;;5030693;28;20465;-77
2023/12/20 01:18:27;;;;;;;7.43;5.35;;;6.10;75.10;;;;;;5032210;28;20026;-76
2023/12/20 01:20:53;;;;;;;6.60;4.60;;;6.10;75.90;;;;;;5032107;28;20099;-78
2023/12/20 01:23:19;;;;;;;9.05;4.85;;;6.10;75.70;;;;;;5030441;28;20483;-76
2023/12/20 01:25:45;;;;;;;9.52;5.05;;;6.10;76.30;;;;;;5032398;28;20029;-77
2023/12/20 01:28:10;;;;;;;6.50;4.45;;;6.00;76.40;;;;;;5032026;28;20024;-78
2023/12/20 01:30:36;;;;;;;7.30;4.13;;;6.10;76.40;;;;;;5032235;28;20014;-78
2023/12/20 01:33:02;;;;;;;6.30;4.88;;;6.00;76.10;;;;;;5034943;28;20052;-79
2023/12/20 01:35:27;;;;;;;6.50;4.20;;;6.00;75.30;;;;;;5036058;28;20025;-79
2023/12/20 01:37:56;;;;;;;7.30;4.68;;;6.00;74.90;;;;;;5034375;28;20033;-77
2023/12/20 01:40:22;;;;;;;6.15;4.05;;;6.00;75.40;;;;;;5030566;28;20036;-79
2023/12/20 01:42:58;;;;;;;5.65;4.45;;;6.00;75.10;;;;;;5034551;28;20017;-78
2023/12/20 01:45:24;;;;;;;6.25;4.47;;;6.00;73.90;;;;;;5035299;28;20021;-80
2023/12/20 01:47:50;;;;;;;6.18;4.30;;;6.00;73.40;;;;;;5034322;28;20036;-76
2023/12/20 01:50:16;;;;;;;7.25;4.10;;;6.10;72.30;;;;;;5034386;28;20022;-79
2023/12/20 01:52:43;;;;;;;5.47;4.28;;;6.10;71.40;;;;;;5033840;28;20017;-78
2023/12/20 01:55:13;;;;;;;6.80;3.58;;;6.10;71.20;;;;;;5027757;28;20603;-77
2023/12/20 01:57:40;;;;;;;5.35;3.78;;;6.10;70.10;;;;;;5035162;28;20022;-76
2023/12/20 02:00:09;;;;;;;4.00;3.22;;;6.20;69.70;;;;;;5034468;28;20104;-76
2023/12/20 02:02:38;;;;;;;8.38;5.57;;;6.20;69.00;;;;;;5034714;28;20465;-78
2023/12/20 02:05:05;;;;;;;6.18;4.85;;;6.20;67.70;;;;;;5034134;28;20021;-77
2023/12/20 02:07:31;;;;;;;7.75;4.80;;;6.30;67.70;;;;;;5035056;28;20034;-76
2023/12/20 02:09:56;;;;;;;8.23;3.72;;;6.30;67.50;;;;;;5033961;28;20498;-79
2023/12/20 02:12:22;;;;;;;5.72;3.95;;;6.30;66.20;;;;;;5033731;28;20053;-79
2023/12/20 02:14:48;;;;;;;4.32;3.45;;;6.30;65.00;;;;;;5034858;28;20044;-76
2023/12/20 02:17:15;;;;;;;4.72;3.28;;;6.40;64.50;;;;;;5034608;28;20550;-78
2023/12/20 02:19:41;;;;;;;4.72;3.20;;;6.40;63.90;;;;;;5030043;28;20025;-79
2023/12/20 02:22:10;;;;;;;4.38;3.55;;;6.40;63.10;;;;;;5027693;28;20470;-79
2023/12/20 02:24:36;;;;;;;6.45;3.75;;;6.40;63.60;;;;;;5033528;28;20025;-79
2023/12/20 02:27:02;;;;;;;5.13;3.30;;;6.40;62.80;;;;;;5027841;28;20022;-79
2023/12/20 02:29:28;;;;;;;4.45;3.58;;;6.40;63.10;;;;;;5033714;28;20030;-79
2023/12/20 02:31:54;;;;;;;5.25;3.75;;;6.40;63.60;;;;;;5033124;28;20049;-77
2023/12/20 02:34:19;;;;;;;5.85;4.25;;;6.40;64.20;;;;;;5033587;28;20038;-78
2023/12/20 02:36:45;;;;;;;8.27;4.65;;;6.40;63.40;;;;;;5021317;28;20025;-79
2023/12/20 02:39:10;;;;;;;6.93;4.38;;;6.40;63.50;;;;;;5033426;28;20044;-77
2023/12/20 02:41:36;;;;;;;5.32;4.43;;;6.40;63.30;;;;;;5032899;28;20049;-79
2023/12/20 02:44:02;;;;;;;7.22;3.83;;;6.40;63.40;;;;;;5033055;28;20485;-78
2023/12/20 02:46:28;;;;;;;7.68;4.32;;;6.30;63.70;;;;;;5034245;28;20460;-78
2023/12/20 02:48:53;;;;;;;7.38;4.20;;;6.30;63.70;;;;;;5034684;28;20030;-78
2023/12/20 02:51:19;;;;;;;7.20;4.03;;;6.30;63.10;;;;;;5034496;28;20064;-77
2023/12/20 02:53:44;;;;;;;5.13;3.65;;;6.30;62.20;;;;;;5034271;28;20048;-76
2023/12/20 02:56:10;;;;;;;7.85;4.78;;;6.30;62.40;;;;;;5032944;28;20057;-78
2023/12/20 02:58:36;;;;;;;7.35;4.85;;;6.30;61.70;;;;;;5033103;28;20091;-75
2023/12/20 03:01:02;;;;;;;5.47;4.53;;;6.30;61.10;;;;;;5033852;28;20052;-78
2023/12/20 03:03:27;;;;;;;5.20;4.25;;;6.30;61.00;;;;;;5033113;28;20542;-78
2023/12/20 03:05:53;;;;;;;5.55;4.07;;;6.30;61.10;;;;;;5034230;28;20029;-78
2023/12/20 03:08:18;;;;;;;7.97;4.72;;;6.30;61.00;;;;;;5033079;28;20045;-79
2023/12/20 03:10:44;;;;;;;8.10;5.22;;;6.30;60.70;;;;;;5032583;28;20079;-76
2023/12/20 03:13:10;;;;;;;6.20;4.75;;;6.30;61.10;;;;;;5032668;28;20041;-78
2023/12/20 03:15:36;;;;;;;5.75;4.40;;;6.30;61.10;;;;;;5029554;28;20026;-78
2023/12/20 03:18:01;;;;;;;6.45;4.90;;;6.30;61.50;;;;;;5034169;28;20060;-77
2023/12/20 03:20:27;;;;;;;9.02;4.50;;;6.20;61.30;;;;;;5023517;28;20022;-78
2023/12/20 03:22:53;;;;;;;6.80;5.10;;;6.20;61.60;;;;;;5032289;28;20140;-78
2023/12/20 03:25:18;;;;;;;7.03;5.13;;;6.20;62.00;;;;;;5024364;28;20018;-76
2023/12/20 03:27:44;;;;;;;9.57;5.60;;;6.20;62.60;;;;;;5033673;28;20025;-78
2023/12/20 03:30:10;;;;;;;6.82;4.97;;;6.10;63.70;;;;;;5033831;28;20037;-78
2023/12/20 03:32:37;;;;;;;7.75;5.47;;;6.00;65.70;;;;;;5032207;28;20145;-79
2023/12/20 03:35:03;;;;;;;6.88;5.10;;;5.90;67.60;;;;;;5032139;28;20498;-79
2023/12/20 03:37:28;;;;;;;10.25;5.80;;;5.80;68.40;;;;;;5032430;28;20184;-76
2023/12/20 03:39:54;;;;;;;9.68;6.30;;;5.70;70.40;;;;;;5026809;28;20502;-78
2023/12/20 03:42:20;;;;;;;8.75;6.95;;;5.70;72.00;;;;;;5033348;28;20026;-76
2023/12/20 03:44:45;;;;;;;10.55;7.30;;;5.60;73.20;;;;;;5033268;28;20026;-78
2023/12/20 03:47:11;;;;;;;13.20;7.95;;;5.50;75.30;;;;;;5032212;28;20028;-76
2023/12/20 03:49:38;;;;;;;12.80;7.65;;;5.40;75.40;;;;;;5031899;28;20387;-76
2023/12/20 03:52:04;;;;;;;11.68;7.13;;;5.30;77.40;;;;;;5033511;28;20029;-78
2023/12/20 03:54:30;;;;;;;9.98;8.00;;;5.20;79.50;;;;;;5031030;28;20124;-78
2023/12/20 03:56:55;;;;;;;9.77;7.68;;;5.10;82.00;;;;;;5032060;28;20106;-79
2023/12/20 03:59:22;;;;;;;12.02;7.38;;;5.10;84.10;;;;;;5032016;28;20079;-77
2023/12/20 04:01:47;;;;;;;11.70;8.35;;;5.00;86.30;;;;;;5032992;28;20037;-77
2023/12/20 04:04:13;;;;;;;13.60;8.65;;;4.90;88.40;;;;;;5033024;28;20017;-76
2023/12/20 04:06:39;;;;;;;15.00;9.65;;;4.80;91.90;;;;;;5031846;28;20498;-78
2023/12/20 04:09:05;;;;;;;16.38;10.35;;;4.70;96.00;;;;;;5032992;28;20022;-78
2023/12/20 04:11:31;;;;;;;22.77;11.10;;;4.70;99.10;;;;;;5033036;28;20083;-76
2023/12/20 04:13:56;;;;;;;21.10;10.57;;;4.60;99.90;;;;;;5031334;28;20030;-78
2023/12/20 04:16:22;;;;;;;21.30;11.20;;;4.60;99.90;;;;;;5033016;28;20053;-76
2023/12/20 04:18:48;;;;;;;25.48;12.20;;;4.60;99.90;;;;;;5032911;28;20072;-80
2023/12/20 04:21:13;;;;;;;20.35;11.23;;;4.50;99.90;;;;;;5048139;28;20024;-76
2023/12/20 04:23:39;;;;;;;19.23;10.77;;;4.40;99.90;;;;;;5031718;28;20075;-76
2023/12/20 04:26:05;;;;;;;18.83;10.93;;;4.40;99.90;;;;;;5032869;28;20033;-77
2023/12/20 04:28:30;;;;;;;18.77;11.20;;;4.30;99.90;;;;;;5032854;28;20067;-78
2023/12/20 04:30:56;;;;;;;26.23;13.13;;;4.20;99.90;;;;;;5032501;28;20391;-78
2023/12/20 04:33:22;;;;;;;23.92;11.80;;;4.20;99.90;;;;;;5032884;28;20072;-76
2023/12/20 04:35:48;;;;;;;21.92;13.43;;;4.10;99.90;;;;;;5032925;28;20079;-78
2023/12/20 04:38:14;;;;;;;17.70;11.23;;;4.20;99.90;;;;;;5031341;28;20533;-76
2023/12/20 04:40:40;;;;;;;14.15;9.20;;;4.10;99.90;;;;;;5022631;28;20479;-77
2023/12/20 04:43:07;;;;;;;17.02;10.13;;;4.10;99.90;;;;;;5032434;28;20020;-78
2023/12/20 04:45:33;;;;;;;13.63;9.52;;;4.10;99.90;;;;;;5029640;28;20075;-78
2023/12/20 04:47:58;;;;;;;14.80;9.07;;;4.10;99.90;;;;;;5026074;28;20026;-80
2023/12/20 04:50:24;;;;;;;12.82;7.90;;;4.00;99.90;;;;;;5032534;28;20447;-77
2023/12/20 04:52:50;;;;;;;16.33;8.85;;;4.00;99.90;;;;;;5018770;28;20030;-74
2023/12/20 04:55:16;;;;;;;13.68;8.18;;;3.90;99.90;;;;;;5031689;28;20040;-77
2023/12/20 04:57:42;;;;;;;14.05;9.10;;;3.90;99.90;;;;;;5032559;28;20445;-75
2023/12/20 05:00:08;;;;;;;12.98;8.65;;;3.80;99.90;;;;;;5030943;28;20014;-76
2023/12/20 05:02:35;;;;;;;15.32;9.88;;;3.70;99.90;;;;;;5032347;28;20087;-75
2023/12/20 05:05:01;;;;;;;12.38;8.95;;;3.60;99.90;;;;;;5031245;28;20113;-75
2023/12/20 05:07:27;;;;;;;16.45;9.27;;;3.60;99.90;;;;;;5036189;28;20109;-78
2023/12/20 05:09:53;;;;;;;13.80;9.50;;;3.60;99.90;;;;;;5023687;28;20063;-77
2023/12/20 05:12:19;;;;;;;14.05;9.90;;;3.60;99.90;;;;;;5035860;28;20477;-77
2023/12/20 05:14:44;;;;;;;14.95;11.00;;;3.60;99.90;;;;;;5035043;28;20239;-77
2023/12/20 05:17:10;;;;;;;17.17;11.27;;;3.50;99.90;;;;;;5034870;28;20068;-78
2023/12/20 05:19:36;;;;;;;18.35;12.00;;;3.60;99.90;;;;;;5038684;28;20024;-78
2023/12/20 05:22:02;;;;;;;19.67;11.93;;;3.50;99.90;;;;;;5035898;28;20052;-79
2023/12/20 05:24:28;;;;;;;19.58;12.70;;;3.50;99.90;;;;;;5046974;28;20380;-78
2023/12/20 05:26:53;;;;;;;16.45;11.95;;;3.50;99.90;;;;;;5035958;28;20020;-78
2023/12/20 05:29:19;;;;;;;20.42;12.35;;;3.40;99.90;;;;;;5034871;28;20460;-79
2023/12/20 05:31:44;;;;;;;18.65;12.88;;;3.40;99.90;;;;;;5034255;28;20467;-79
2023/12/20 05:34:10;;;;;;;22.77;13.50;;;3.40;99.90;;;;;;5035617;28;20152;-79
2023/12/20 05:36:36;;;;;;;21.30;13.35;;;3.40;99.90;;;;;;5027163;28;20108;-78
2023/12/20 05:39:03;;;;;;;21.95;14.68;;;3.40;99.90;;;;;;5035843;28;20467;-78
2023/12/20 05:41:30;;;;;;;22.95;14.73;;;3.30;99.90;;;;;;5031624;28;20037;-77
2023/12/20 05:43:57;;;;;;;21.77;13.50;;;3.30;99.90;;;;;;5044837;28;20018;-80
2023/12/20 05:46:23;;;;;;;21.67;14.38;;;3.30;99.90;;;;;;5047630;28;20090;-80
2023/12/20 05:48:49;;;;;;;23.38;13.82;;;3.30;99.90;;;;;;5044127;28;20487;-79
2023/12/20 05:51:21;;;;;;;24.38;15.15;;;3.30;99.90;;;;;;5045891;28;20075;-79
2023/12/20 05:53:46;;;;;;;24.80;14.45;;;3.30;99.90;;;;;;5034218;28;20073;-78
2023/12/20 05:56:12;;;;;;;23.55;14.52;;;3.30;99.90;;;;;;5029960;28;20060;-79
2023/12/20 05:58:39;;;;;;;21.50;13.52;;;3.30;99.90;;;;;;5040956;28;20417;-79
2023/12/20 06:01:07;;;;;;;21.35;13.15;;;3.30;99.90;;;;;;5030818;28;20049;-79
2023/12/20 06:03:36;;;;;;;19.30;13.27;;;3.30;99.90;;;;;;5038957;28;20025;-78
2023/12/20 06:06:08;;;;;;;25.27;13.63;;;3.20;99.90;;;;;;5030365;28;20129;-77
2023/12/20 06:08:33;;;;;;;19.98;12.73;;;3.30;99.90;;;;;;5038701;28;20056;-77
2023/12/20 06:10:59;;;;;;;19.17;12.07;;;3.30;99.90;;;;;;5037645;28;20064;-76
2023/12/20 06:13:24;;;;;;;20.77;13.23;;;3.30;99.90;;;;;;5033163;28;20621;-77
2023/12/20 06:15:50;;;;;;;22.48;13.40;;;3.30;99.90;;;;;;5050584;28;20033;-77
2023/12/20 06:18:16;;;;;;;24.13;14.98;;;3.20;99.90;;;;;;5032157;28;20391;-77
2023/12/20 06:20:42;;;;;;;21.27;13.93;;;3.20;99.90;;;;;;5047834;28;20017;-76
2023/12/20 06:23:07;;;;;;;24.35;13.90;;;3.20;99.90;;;;;;5040460;28;20032;-78
2023/12/20 06:25:33;;;;;;;20.17;13.65;;;3.20;99.90;;;;;;5037757;28;20411;-78
2023/12/20 06:27:59;;;;;;;23.67;14.52;;;3.10;99.90;;;;;;5039069;28;21523;-78
2023/12/20 06:30:25;;;;;;;23.92;14.07;;;3.10;99.90;;;;;;5047339;28;20152;-78
2023/12/20 06:32:51;;;;;;;21.98;12.88;;;3.10;99.90;;;;;;5041188;28;20064;-78
2023/12/20 06:35:16;;;;;;;30.17;13.98;;;3.00;99.90;;;;;;5037919;28;20029;-77
2023/12/20 06:37:42;;;;;;;22.23;14.80;;;3.00;99.90;;;;;;5042215;28;20031;-78
2023/12/20 06:40:10;;;;;;;22.63;13.98;;;3.00;99.90;;;;;;5031531;28;20364;-78
2023/12/20 06:42:36;;;;;;;23.35;14.45;;;3.00;99.90;;;;;;5033321;28;20039;-78
2023/12/20 06:45:01;;;;;;;23.80;13.88;;;2.90;99.90;;;;;;5029249;28;20018;-77
2023/12/20 06:47:27;;;;;;;27.63;16.63;;;2.90;99.90;;;;;;5033744;28;20075;-79
2023/12/20 06:49:53;;;;;;;25.20;15.02;;;2.90;99.90;;;;;;5048603;28;20029;-77
2023/12/20 06:52:18;;;;;;;28.00;15.13;;;2.80;99.90;;;;;;5035313;28;20087;-77
2023/12/20 06:54:44;;;;;;;28.58;16.00;;;2.80;99.90;;;;;;5030635;28;20550;-79
2023/12/20 06:57:10;;;;;;;26.73;14.75;;;2.80;99.90;;;;;;5032447;28;20017;-78
2023/12/20 06:59:41;;;;;;;24.20;14.38;;;2.70;99.90;;;;;;5033607;28;20030;-79
2023/12/20 07:02:08;;;;;;;27.55;16.67;;;2.70;99.90;;;;;;5052702;28;20112;-77
2023/12/20 07:04:33;;;;;;;23.63;14.18;;;2.70;99.90;;;;;;5039625;28;20506;-78
2023/12/20 07:07:00;;;;;;;32.85;15.88;;;2.70;99.90;;;;;;5038684;28;20018;-77
2023/12/20 07:09:26;;;;;;;29.92;16.70;;;2.60;99.90;;;;;;5033820;28;20026;-77
2023/12/20 07:11:52;;;;;;;23.73;15.63;;;2.60;99.90;;;;;;5038661;28;20056;-76
2023/12/20 07:14:18;;;;;;;30.95;17.20;;;2.60;99.90;;;;;;5031198;28;20033;-76
2023/12/20 07:16:44;;;;;;;29.63;18.10;;;2.60;99.90;;;;;;5046754;28;20039;-78
2023/12/20 07:19:09;;;;;;;24.42;14.63;;;2.60;99.90;;;;;;5043481;28;20033;-78
2023/12/20 07:21:35;;;;;;;28.98;17.42;;;2.60;99.90;;;;;;5048233;28;20514;-77
2023/12/20 07:24:01;;;;;;;32.30;18.40;;;2.60;99.90;;;;;;5041658;28;20016;-79
2023/12/20 07:26:26;;;;;;;29.50;17.48;;;2.60;99.90;;;;;;5044583;28;20025;-79
2023/12/20 07:28:52;;;;;;;28.58;17.20;;;2.60;99.90;;;;;;5034480;28;20021;-76
2023/12/20 07:31:18;;;;;;;27.45;16.92;;;2.50;99.90;;;;;;5038901;28;20017;-77
2023/12/20 07:33:44;;;;;;;32.15;18.50;;;2.50;99.90;;;;;;5045786;28;20041;-77
2023/12/20 07:36:09;;;;;;;27.88;17.42;;;2.50;99.90;;;;;;5048490;28;20128;-79
2023/12/20 07:38:35;;;;;;;30.73;17.42;;;2.50;99.90;;;;;;5048182;28;20029;-77
2023/12/20 07:41:01;;;;;;;32.03;18.48;;;2.50;99.90;;;;;;5043445;28;20098;-77
2023/12/20 07:43:26;;;;;;;33.10;20.05;;;2.40;99.90;;;;;;5041187;28;20508;-78
2023/12/20 07:45:52;;;;;;;31.55;20.05;;;2.40;99.90;;;;;;5049283;28;20025;-77
2023/12/20 07:48:17;;;;;;;35.13;19.77;;;2.40;99.90;;;;;;5046668;28;20028;-77
2023/12/20 07:50:43;;;;;;;39.42;22.42;;;2.40;99.90;;;;;;5040996;28;20391;-79
2023/12/20 07:53:09;;;;;;;40.05;22.17;;;2.40;99.90;;;;;;5042273;28;20045;-79
2023/12/20 07:55:34;;;;;;;33.53;20.48;;;2.40;99.90;;;;;;5039944;28;20025;-77
2023/12/20 07:58:00;;;;;;;37.33;22.15;;;2.40;99.90;;;;;;5040158;28;20031;-76
2023/12/20 08:00:26;;;;;;;36.65;22.13;;;2.40;99.90;;;;;;5043371;28;20043;-76
2023/12/20 08:02:52;;;;;;;46.90;22.23;;;2.40;99.90;;;;;;5038902;28;20026;-78
2023/12/20 08:05:18;;;;;;;38.53;22.40;;;2.40;99.90;;;;;;5043657;28;20021;-77
2023/12/20 08:07:43;;;;;;;38.92;23.20;;;2.50;99.90;;;;;;5037745;28;20706;-77
2023/12/20 08:10:10;;;;;;;43.95;23.92;;;2.40;99.90;;;;;;5041042;28;20071;-79
2023/12/20 08:12:35;;;;;;;44.20;24.08;;;2.50;99.90;;;;;;5037546;28;20033;-78
2023/12/20 08:15:02;;;;;;;38.55;24.33;;;2.40;99.90;;;;;;5036079;28;20119;-78
2023/12/20 08:17:30;;;;;;;41.85;25.60;;;2.40;99.90;;;;;;5032939;28;20121;-79
2023/12/20 08:19:56;;;;;;;41.45;23.60;;;2.50;99.90;;;;;;5033853;28;20037;-77
2023/12/20 08:22:24;;;;;;;40.65;23.48;;;2.40;99.90;;;;;;5033319;28;20387;-79
2023/12/20 08:24:53;;;;;;;42.45;25.45;;;2.40;99.90;;;;;;5022370;28;20049;-79
2023/12/20 08:27:18;;;;;;;43.60;24.10;;;2.50;99.90;;;;;;5029672;28;20498;-78
2023/12/20 08:29:45;;;;;;;46.33;24.27;;;2.50;99.90;;;;;;5030133;28;20029;-78
2023/12/20 08:32:11;;;;;;;51.00;24.98;;;2.50;99.90;;;;;;5028687;28;20049;-78
2023/12/20 08:34:36;;;;;;;44.85;24.45;;;2.50;99.90;;;;;;5018941;28;20088;-77
2023/12/20 08:37:02;;;;;;;44.72;27.38;;;2.50;99.90;;;;;;5025549;28;20104;-77
2023/12/20 08:39:29;;;;;;;48.38;25.95;;;2.50;99.90;;;;;;5024411;28;20053;-77
2023/12/20 08:41:55;;;;;;;55.13;29.30;;;2.40;99.90;;;;;;5028363;28;20017;-77
2023/12/20 08:44:22;;;;;;;51.15;27.15;;;2.50;99.90;;;;;;5028687;28;20025;-77
2023/12/20 08:46:48;;;;;;;43.90;26.27;;;2.50;99.90;;;;;;5029537;28;20492;-77
2023/12/20 08:49:14;;;;;;;52.38;27.67;;;2.40;99.90;;;;;;5030565;28;20021;-78
2023/12/20 08:51:40;;;;;;;44.40;24.73;;;2.40;99.90;;;;;;5030249;28;20100;-77
2023/12/20 08:54:07;;;;;;;39.22;22.33;;;2.40;99.90;;;;;;5031255;28;20033;-77
2023/12/20 08:56:34;;;;;;;39.42;24.60;;;2.40;99.90;;;;;;5030795;28;20026;-77
2023/12/20 08:58:59;;;;;;;42.80;23.73;;;2.40;99.90;;;;;;5031296;28;20056;-76
2023/12/20 09:01:25;;;;;;;38.30;22.75;;;2.40;99.90;;;;;;5031760;28;20080;-76
2023/12/20 09:03:50;;;;;;;44.28;24.77;;;2.40;99.90;;;;;;5031607;28;20022;-76
2023/12/20 09:06:16;;;;;;;42.22;25.55;;;2.50;99.90;;;;;;5029893;28;20494;-76
2023/12/20 09:08:41;;;;;;;48.65;25.05;;;2.40;99.90;;;;;;5031164;28;20018;-77
2023/12/20 09:11:07;;;;;;;40.35;24.60;;;2.40;99.90;;;;;;5031354;28;20093;-76
2023/12/20 09:13:33;;;;;;;41.42;23.30;;;2.40;99.90;;;;;;5032780;28;20033;-77
2023/12/20 09:15:59;;;;;;;42.88;25.52;;;2.50;99.90;;;;;;5030987;28;20022;-77
2023/12/20 09:18:25;;;;;;;37.05;21.55;;;2.50;99.90;;;;;;5032292;28;20022;-76
2023/12/20 09:20:50;;;;;;;38.22;22.25;;;2.50;99.90;;;;;;5033008;28;20545;-76
2023/12/20 09:23:17;;;;;;;35.45;21.88;;;2.40;99.90;;;;;;5035336;28;20116;-79
2023/12/20 09:25:44;;;;;;;36.35;19.25;;;2.40;99.90;;;;;;5034997;28;20025;-76
2023/12/20 09:28:09;;;;;;;28.73;18.52;;;2.40;99.90;;;;;;5031434;28;20033;-79
2023/12/20 09:30:39;;;;;;;32.90;19.85;;;2.40;99.90;;;;;;5030576;28;20561;-77
2023/12/20 09:33:06;;;;;;;31.73;17.88;;;2.40;99.90;;;;;;5031551;28;20033;-76
2023/12/20 09:35:32;;;;;;;30.25;18.85;;;2.30;99.90;;;;;;5031360;28;20021;-78
2023/12/20 09:37:58;;;;;;;33.72;19.38;;;2.30;99.90;;;;;;5030511;28;20014;-78
2023/12/20 09:40:26;;;;;;;27.90;16.85;;;2.30;99.90;;;;;;5018368;28;20022;-76
2023/12/20 09:43:03;;;;;;;25.30;16.02;;;2.30;99.90;;;;;;5030260;28;20449;-79
2023/12/20 09:45:31;;;;;;;30.55;18.38;;;2.20;99.90;;;;;;5030254;28;20072;-76
2023/12/20 09:47:58;;;;;;;27.50;18.02;;;2.20;99.90;;;;;;5030606;28;20029;-76
2023/12/20 09:50:24;;;;;;;33.80;18.80;;;2.20;99.90;;;;;;5031067;28;20034;-77
2023/12/20 09:52:53;;;;;;;30.08;16.30;;;2.20;99.90;;;;;;5030079;28;20159;-78
2023/12/20 09:55:20;;;;;;;33.63;19.02;;;2.20;99.90;;;;;;5035149;28;20048;-78
2023/12/20 09:57:49;;;;;;;42.45;22.52;;;2.20;99.90;;;;;;5030617;28;20029;-79
2023/12/20 10:00:15;;;;;;;40.65;21.48;;;2.20;99.90;;;;;;5032693;28;20024;-79
2023/12/20 10:02:51;;;;;;;29.13;18.17;;;2.20;99.90;;;;;;5032962;28;20028;-79
2023/12/20 10:05:20;;;;;;;39.92;22.15;;;2.20;99.90;;;;;;5033119;28;20037;-79
2023/12/20 10:07:47;;;;;;;43.85;22.27;;;2.10;99.90;;;;;;5034309;28;20487;-79
2023/12/20 10:10:14;;;;;;;33.78;18.23;;;2.10;99.90;;;;;;5034404;28;20029;-79
2023/12/20 10:12:40;;;;;;;39.90;20.73;;;2.20;99.90;;;;;;5034353;28;20017;-79
2023/12/20 10:15:06;;;;;;;41.60;22.75;;;2.20;99.90;;;;;;5033525;28;20437;-78
2023/12/20 10:17:32;;;;;;;40.17;21.17;;;2.10;99.90;;;;;;5032928;28;20017;-78
2023/12/20 10:19:58;;;;;;;48.53;24.27;;;2.20;99.90;;;;;;5033198;28;20099;-79
2023/12/20 10:22:24;;;;;;;49.50;24.92;;;2.20;99.90;;;;;;5032463;28;20045;-79
2023/12/20 10:24:50;;;;;;;40.63;21.67;;;2.20;99.90;;;;;;5043544;28;20105;-78
2023/12/20 10:27:19;;;;;;;46.20;25.90;;;2.20;99.90;;;;;;5033068;28;20534;-78
2023/12/20 10:29:45;;;;;;;40.60;23.23;;;2.20;99.90;;;;;;5031585;28;20025;-79
2023/12/20 10:32:24;;;;;;;39.53;20.98;;;2.20;99.90;;;;;;5032490;28;20125;-77
2023/12/20 10:34:50;;;;;;;40.00;22.38;;;2.20;99.90;;;;;;5033209;28;20037;-78
2023/12/20 10:37:17;;;;;;;38.17;21.08;;;2.20;99.90;;;;;;5029198;28;20029;-77
2023/12/20 10:39:43;;;;;;;36.38;20.48;;;2.20;99.90;;;;;;5033475;28;20030;-78
2023/12/20 10:42:12;;;;;;;34.55;20.17;;;2.20;99.90;;;;;;5031636;28;20478;-78
2023/12/20 10:44:37;;;;;;;33.42;20.17;;;2.20;99.90;;;;;;5032408;28;20024;-79
2023/12/20 10:47:04;;;;;;;36.60;20.70;;;2.20;99.90;;;;;;5033347;28;20018;-80
2023/12/20 10:49:31;;;;;;;34.72;20.60;;;2.20;99.90;;;;;;5032285;28;20068;-79
2023/12/20 10:52:02;;;;;;;37.03;22.08;;;2.20;99.90;;;;;;5031741;28;20809;-79
2023/12/20 10:54:28;;;;;;;34.17;20.50;;;2.20;99.90;;;;;;5030293;28;20069;-79
2023/12/20 10:56:57;;;;;;;36.78;21.70;;;2.20;99.90;;;;;;5032382;28;20060;-78
2023/12/20 10:59:24;;;;;;;39.67;23.02;;;2.30;99.90;;;;;;5031934;28;20475;-79
2023/12/20 11:01:50;;;;;;;40.88;23.70;;;2.30;99.90;;;;;;5033083;28;20013;-79
2023/12/20 11:04:25;;;;;;;40.25;22.42;;;2.30;99.90;;;;;;5032142;28;20108;-79
2023/12/20 11:07:02;;;;;;;45.22;22.75;;;2.30;99.90;;;;;;5048536;28;20438;-80
2023/12/20 11:09:35;;;;;;;45.50;24.95;;;2.30;99.90;;;;;;5033282;28;20014;-79
2023/12/20 11:12:18;;;;;;;44.70;24.15;;;2.30;99.90;;;;;;5029998;28;20075;-79
2023/12/20 11:14:47;;;;;;;42.22;20.45;;;2.30;99.90;;;;;;5031358;28;20076;-78
2023/12/20 11:17:15;;;;;;;49.40;22.67;;;2.30;99.90;;;;;;5031922;28;20029;-79
2023/12/20 11:19:56;;;;;;;42.92;22.58;;;2.30;99.90;;;;;;5040882;28;20487;-79
2023/12/20 11:22:25;;;;;;;38.00;19.27;;;2.30;99.90;;;;;;5027985;28;20079;-80
2023/12/20 11:24:52;;;;;;;29.45;17.17;;;2.40;99.90;;;;;;5032806;28;20022;-80
2023/12/20 11:27:19;;;;;;;32.53;17.45;;;2.30;99.90;;;;;;5031462;28;20069;-79
2023/12/20 11:29:52;;;;;;;29.15;16.08;;;2.40;99.90;;;;;;5022146;28;20030;-80
2023/12/20 11:32:29;;;;;;;26.33;15.82;;;2.40;99.90;;;;;;5031450;28;20441;-79
2023/12/20 11:35:00;;;;;;;22.85;13.57;;;2.40;99.90;;;;;;5028116;28;20510;-79
2023/12/20 11:37:37;;;;;;;22.02;13.90;;;2.40;99.90;;;;;;5031558;28;20084;-79
2023/12/20 11:40:09;;;;;;;26.75;14.85;;;2.40;99.90;;;;;;5026451;28;20030;-79
2023/12/20 11:42:41;;;;;;;24.87;15.57;;;2.30;99.90;;;;;;5032372;28;20025;-81
2023/12/20 11:45:11;;;;;;;25.63;13.70;;;2.40;99.90;;;;;;5031935;28;20075;-80
2023/12/20 11:47:37;;;;;;;26.23;14.70;;;2.30;99.90;;;;;;5027503;28;20025;-81
2023/12/20 11:50:03;;;;;;;25.67;15.27;;;2.40;99.90;;;;;;5030466;28;20032;-80
2023/12/20 11:52:29;;;;;;;25.30;16.80;;;2.40;99.90;;;;;;5026660;28;20030;-80
2023/12/20 11:54:55;;;;;;;25.60;16.70;;;2.40;99.90;;;;;;5026158;28;20049;-80
2023/12/20 11:57:21;;;;;;;25.38;15.52;;;2.40;99.90;;;;;;5030486;28;20025;-79
2023/12/20 11:59:47;;;;;;;24.33;14.15;;;2.40;99.90;;;;;;5033024;28;20102;-80
2023/12/20 12:02:13;;;;;;;26.25;16.60;;;2.40;99.90;;;;;;5025664;28;20024;-80
2023/12/20 12:04:41;;;;;;;30.83;16.65;;;2.40;99.90;;;;;;5035493;28;20038;-80
2023/12/20 12:07:07;;;;;;;35.20;20.10;;;2.40;99.90;;;;;;5036776;28;20141;-80
2023/12/20 12:09:33;;;;;;;31.30;18.52;;;2.40;99.90;;;;;;5031862;28;20042;-81
2023/12/20 12:11:59;;;;;;;34.00;17.63;;;2.40;99.90;;;;;;5036545;28;20035;-80
2023/12/20 12:14:24;;;;;;;33.80;19.92;;;2.40;99.90;;;;;;5031295;28;20049;-81
2023/12/20 12:16:52;;;;;;;32.83;20.08;;;2.50;99.90;;;;;;5031079;28;20045;-83
2023/12/20 12:19:26;;;;;;;34.08;16.98;;;2.50;99.90;;;;;;5042808;28;20033;-82
2023/12/20 12:22:07;;;;;;;40.10;19.13;;;2.40;99.90;;;;;;5041712;28;20028;-82
2023/12/20 12:24:33;;;;;;;32.15;17.27;;;2.40;99.90;;;;;;5046929;28;20021;-82
2023/12/20 12:26:59;;;;;;;32.35;17.42;;;2.40;99.90;;;;;;5044377;28;20032;-82
2023/12/20 12:29:24;;;;;;;24.23;16.50;;;2.40;99.90;;;;;;5046147;28;20032;-81
2023/12/20 12:31:51;;;;;;;26.60;16.15;;;2.40;99.90;;;;;;5047110;28;20187;-81
2023/12/20 12:34:17;;;;;;;27.35;16.85;;;2.50;99.90;;;;;;5035239;28;20037;-81
2023/12/20 12:36:45;;;;;;;19.58;13.30;;;2.50;99.90;;;;;;5047990;28;20049;-81
2023/12/20 12:39:18;;;;;;;23.40;15.48;;;2.50;99.90;;;;;;5038027;28;20029;-82